Terminal Aerodrome Forecast
Issued by NWS Tampa Bay Area, FL

Home | Current Version | Previous Version | Text Only | Print | Product List | Glossary On
Versions: 1 2 3 4 5 6 7 8 9 10 11 12
000
FTUS42 KTBW 211731
TAFSRQ
TAF
KSRQ 211731Z 2118/2218 14009KT P6SM VCSH SCT030 BKN060
     FM212100 23007KT P6SM SCT030 SCT080 BKN250
     FM220100 VRB03KT P6SM SCT080 BKN250
     FM220800 VRB03KT 5SM BR SCT005 SCT250
      TEMPO 2209/2213 2SM BR BKN005
     FM221500 10004KT P6SM SCT020 SCT150
     FM221700 23006KT P6SM SCT035 SCT150=

USA.gov is the U.S. government's official web portal to all federal, state and local government web resources and services.